Time;durP1;ratioP1;P1;durP2;ratioP2;P2;SDS_P1;SDS_P2;PMS_P1;PMS_P2;Temp;Humidity;BMP_temperature;BMP_pressure;BME280_temperature;BME280_humidity;BME280_pressure;Samples;Min_cycle;Max_cycle;Signal;HPM_P1;HPM_P2
2021/08/14 00:02:11;;;;;;;21.27;19.67;;;;;;;;;;5035421;28;20445;-90
2021/08/14 00:04:38;;;;;;;20.27;19.07;;;;;;;;;;5035264;28;20394;-89
2021/08/14 00:07:06;;;;;;;21.50;19.70;;;;;;;;;;5035122;28;20411;-89
2021/08/14 00:09:35;;;;;;;21.00;19.60;;;;;;;;;;5034738;28;20474;-89
2021/08/14 00:12:02;;;;;;;21.33;19.87;;;;;;;;;;5018268;28;20917;-89
2021/08/14 00:14:30;;;;;;;21.53;20.10;;;;;;;;;;5034994;28;20452;-89
2021/08/14 00:16:57;;;;;;;21.50;19.87;;;;;;;;;;5017649;28;20456;-89
2021/08/14 00:19:25;;;;;;;20.47;19.07;;;;;;;;;;5017273;28;20933;-89
2021/08/14 00:21:52;;;;;;;21.17;19.53;;;;;;;;;;5034776;28;20994;-89
2021/08/14 00:24:20;;;;;;;21.33;19.83;;;;;;;;;;5035172;28;20979;-89
2021/08/14 00:26:48;;;;;;;21.13;19.80;;;;;;;;;;5035349;28;20442;-89
2021/08/14 00:29:16;;;;;;;21.63;19.87;;;;;;;;;;5034294;28;20487;-89
2021/08/14 00:31:43;;;;;;;20.97;19.67;;;;;;;;;;5034680;28;20469;-89
2021/08/14 00:34:11;;;;;;;22.00;20.40;;;;;;;;;;5034861;28;20536;-89
2021/08/14 00:36:38;;;;;;;22.17;20.10;;;;;;;;;;5034314;28;20464;-89
2021/08/14 00:39:06;;;;;;;20.60;19.20;;;;;;;;;;5034514;28;20423;-89
2021/08/14 00:41:33;;;;;;;21.30;19.70;;;;;;;;;;5034763;28;20416;-89
2021/08/14 00:44:02;;;;;;;21.40;20.10;;;;;;;;;;5034698;28;20457;-89
2021/08/14 00:46:30;;;;;;;22.67;20.97;;;;;;;;;;5034865;28;20804;-90
2021/08/14 00:48:57;;;;;;;20.93;19.60;;;;;;;;;;5034598;28;20477;-90
2021/08/14 00:51:25;;;;;;;20.50;19.20;;;;;;;;;;5034370;28;20435;-89
2021/08/14 00:53:52;;;;;;;20.70;19.20;;;;;;;;;;5034386;28;20914;-90
2021/08/14 00:56:21;;;;;;;22.07;20.37;;;;;;;;;;5034376;28;20453;-89
2021/08/14 00:58:49;;;;;;;20.60;19.40;;;;;;;;;;5034548;28;20430;-90
2021/08/14 01:01:18;;;;;;;21.43;20.03;;;;;;;;;;5034531;28;20440;-90
2021/08/14 01:03:46;;;;;;;20.80;19.43;;;;;;;;;;5034845;28;20433;-90
2021/08/14 01:06:14;;;;;;;20.73;19.47;;;;;;;;;;5017248;28;20443;-90
2021/08/14 01:08:42;;;;;;;20.70;19.07;;;;;;;;;;5034577;28;20493;-89
2021/08/14 01:11:10;;;;;;;21.57;19.70;;;;;;;;;;5033959;28;21002;-90
2021/08/14 01:13:38;;;;;;;20.67;19.33;;;;;;;;;;5034223;28;20448;-89
2021/08/14 01:16:06;;;;;;;21.70;20.10;;;;;;;;;;5034611;28;20459;-90
2021/08/14 01:18:35;;;;;;;21.13;19.83;;;;;;;;;;5034891;28;20453;-90
2021/08/14 01:21:02;;;;;;;22.87;21.03;;;;;;;;;;5034249;28;20443;-89
2021/08/14 01:23:29;;;;;;;20.30;18.90;;;;;;;;;;5034507;28;20420;-90
2021/08/14 01:26:06;;;;;;;20.77;19.50;;;;;;;;;;5016928;28;20505;-90
2021/08/14 01:28:36;;;;;;;21.00;19.50;;;;;;;;;;5034341;28;20826;-89
2021/08/14 01:31:05;;;;;;;20.67;19.13;;;;;;;;;;5034517;28;20408;-90
2021/08/14 01:33:33;;;;;;;21.20;19.77;;;;;;;;;;5016594;28;20470;-90
2021/08/14 01:36:01;;;;;;;20.50;19.30;;;;;;;;;;5034011;28;20470;-90
2021/08/14 01:38:28;;;;;;;19.70;18.50;;;;;;;;;;5034083;28;20417;-90
2021/08/14 01:40:56;;;;;;;20.10;18.80;;;;;;;;;;5033907;28;20424;-90
2021/08/14 01:43:23;;;;;;;20.13;18.73;;;;;;;;;;5034587;28;20444;-90
2021/08/14 01:45:52;;;;;;;20.80;19.50;;;;;;;;;;5017169;28;20412;-90
2021/08/14 01:48:19;;;;;;;22.10;20.50;;;;;;;;;;5034039;28;20448;-90
2021/08/14 01:50:47;;;;;;;20.43;19.03;;;;;;;;;;5016720;28;20423;-90
2021/08/14 01:53:14;;;;;;;21.13;19.90;;;;;;;;;;5034214;28;20417;-90
2021/08/14 01:55:42;;;;;;;21.60;20.10;;;;;;;;;;5034355;28;20428;-90
2021/08/14 01:58:09;;;;;;;21.10;19.63;;;;;;;;;;5033938;28;20521;-90
2021/08/14 02:00:36;;;;;;;21.30;19.53;;;;;;;;;;5037975;28;20477;-90
2021/08/14 02:03:06;;;;;;;21.23;19.80;;;;;;;;;;5037689;28;20419;-90
2021/08/14 02:05:33;;;;;;;21.47;19.73;;;;;;;;;;5037756;28;20439;-90
2021/08/14 02:08:01;;;;;;;19.97;18.50;;;;;;;;;;5037701;28;20452;-90
2021/08/14 02:10:28;;;;;;;21.30;19.70;;;;;;;;;;5037154;28;20502;-90
2021/08/14 02:12:55;;;;;;;21.37;19.70;;;;;;;;;;5037378;28;20443;-89
2021/08/14 02:15:23;;;;;;;21.97;20.13;;;;;;;;;;5037518;28;20407;-90
2021/08/14 02:17:50;;;;;;;21.67;20.07;;;;;;;;;;5037245;28;20421;-89
2021/08/14 02:20:19;;;;;;;21.90;20.20;;;;;;;;;;5037367;28;20870;-90
2021/08/14 02:22:46;;;;;;;21.87;20.07;;;;;;;;;;5037648;28;20410;-90
2021/08/14 02:25:14;;;;;;;22.60;20.93;;;;;;;;;;5037373;28;20407;-89
2021/08/14 02:27:41;;;;;;;21.80;20.07;;;;;;;;;;5037476;28;20907;-90
2021/08/14 02:30:09;;;;;;;21.33;19.83;;;;;;;;;;5037268;28;20488;-90
2021/08/14 02:32:36;;;;;;;21.80;20.20;;;;;;;;;;5037735;28;20468;-90
2021/08/14 02:35:04;;;;;;;21.10;19.57;;;;;;;;;;5037299;28;20917;-90
2021/08/14 02:37:32;;;;;;;21.60;20.10;;;;;;;;;;5037807;28;20439;-90
2021/08/14 02:40:00;;;;;;;21.47;20.03;;;;;;;;;;5037076;28;20426;-89
2021/08/14 02:42:27;;;;;;;23.30;21.30;;;;;;;;;;5037283;28;20430;-90
2021/08/14 02:44:55;;;;;;;22.80;21.20;;;;;;;;;;5037438;28;20447;-90
2021/08/14 02:47:22;;;;;;;21.30;20.00;;;;;;;;;;5036950;28;20817;-90
2021/08/14 02:49:49;;;;;;;21.50;19.90;;;;;;;;;;5036632;28;20988;-90
2021/08/14 02:52:17;;;;;;;21.57;20.00;;;;;;;;;;5036608;28;20466;-90
2021/08/14 02:54:46;;;;;;;21.70;20.10;;;;;;;;;;5037060;28;20532;-90
2021/08/14 02:57:13;;;;;;;22.57;20.90;;;;;;;;;;5036621;28;20482;-89
2021/08/14 02:59:40;;;;;;;21.53;20.03;;;;;;;;;;5037008;28;20791;-90
2021/08/14 03:02:07;;;;;;;21.27;19.87;;;;;;;;;;5036597;28;20932;-89
2021/08/14 03:04:35;;;;;;;22.07;20.60;;;;;;;;;;5036638;28;20440;-89
2021/08/14 03:07:02;;;;;;;22.43;20.73;;;;;;;;;;5036923;28;20408;-90
2021/08/14 03:09:30;;;;;;;21.60;20.00;;;;;;;;;;5035724;28;20470;-90
2021/08/14 03:11:58;;;;;;;21.73;20.23;;;;;;;;;;5036680;28;20448;-89
2021/08/14 03:14:26;;;;;;;21.50;20.10;;;;;;;;;;5036945;28;20451;-90
2021/08/14 03:16:53;;;;;;;22.50;20.77;;;;;;;;;;5036610;28;20928;-90
2021/08/14 03:19:21;;;;;;;22.00;20.50;;;;;;;;;;5019052;28;20518;-90
2021/08/14 03:21:48;;;;;;;22.70;20.87;;;;;;;;;;5036481;28;20453;-90
2021/08/14 03:24:16;;;;;;;22.20;20.70;;;;;;;;;;5036261;28;20421;-90
2021/08/14 03:26:43;;;;;;;22.70;21.00;;;;;;;;;;5036149;28;20899;-90
2021/08/14 03:29:12;;;;;;;21.70;19.93;;;;;;;;;;5036243;28;20801;-90
2021/08/14 03:31:39;;;;;;;22.00;20.70;;;;;;;;;;5036493;28;20440;-90
2021/08/14 03:34:07;;;;;;;22.27;20.57;;;;;;;;;;5035760;28;20471;-89
2021/08/14 03:36:34;;;;;;;22.70;21.03;;;;;;;;;;5036146;28;20434;-90
2021/08/14 03:39:01;;;;;;;21.80;20.33;;;;;;;;;;5036215;28;20412;-89
2021/08/14 03:41:29;;;;;;;23.47;21.67;;;;;;;;;;5035881;28;20437;-89
2021/08/14 03:43:56;;;;;;;22.67;20.97;;;;;;;;;;5035885;28;20517;-89
2021/08/14 03:46:25;;;;;;;22.13;20.47;;;;;;;;;;5035876;28;20451;-90
2021/08/14 03:48:52;;;;;;;24.00;22.20;;;;;;;;;;5035605;28;20494;-90
2021/08/14 03:51:20;;;;;;;22.60;20.57;;;;;;;;;;5035597;28;20430;-90
2021/08/14 03:53:47;;;;;;;21.90;20.50;;;;;;;;;;5035567;28;20509;-90
2021/08/14 03:56:15;;;;;;;22.03;20.53;;;;;;;;;;5035386;28;20505;-89
2021/08/14 03:58:42;;;;;;;21.27;19.77;;;;;;;;;;5035250;28;20885;-89
2021/08/14 04:01:10;;;;;;;22.23;20.47;;;;;;;;;;5035465;28;20419;-90
2021/08/14 04:03:38;;;;;;;20.97;19.40;;;;;;;;;;5035457;28;20451;-89
2021/08/14 04:06:06;;;;;;;22.40;20.80;;;;;;;;;;5035545;28;20414;-89
2021/08/14 04:08:33;;;;;;;22.63;20.43;;;;;;;;;;5035071;28;20535;-89
2021/08/14 04:11:01;;;;;;;21.10;19.50;;;;;;;;;;5035008;28;20508;-89
2021/08/14 04:13:28;;;;;;;20.70;19.20;;;;;;;;;;5017435;28;20444;-89
2021/08/14 04:15:56;;;;;;;21.10;19.53;;;;;;;;;;5035412;28;20485;-89
2021/08/14 04:18:23;;;;;;;20.70;19.17;;;;;;;;;;5035831;28;20784;-89
2021/08/14 04:20:52;;;;;;;22.37;20.60;;;;;;;;;;5034636;28;20543;-89
2021/08/14 04:23:19;;;;;;;21.10;19.67;;;;;;;;;;5034976;28;20414;-89
2021/08/14 04:25:47;;;;;;;20.73;19.40;;;;;;;;;;5035219;28;20406;-89
2021/08/14 04:28:14;;;;;;;20.60;19.37;;;;;;;;;;5017627;28;20445;-90
2021/08/14 04:30:42;;;;;;;20.77;19.37;;;;;;;;;;5034850;28;20480;-90
2021/08/14 04:33:09;;;;;;;21.77;20.27;;;;;;;;;;5017310;28;20427;-90
2021/08/14 04:35:37;;;;;;;21.50;20.00;;;;;;;;;;5034765;28;20438;-90
2021/08/14 04:38:05;;;;;;;21.97;20.47;;;;;;;;;;5034961;28;20418;-90
2021/08/14 04:40:33;;;;;;;20.23;19.00;;;;;;;;;;5034412;28;20445;-89
2021/08/14 04:43:00;;;;;;;21.30;19.43;;;;;;;;;;5034540;28;20432;-96
2021/08/14 04:45:28;;;;;;;21.00;19.30;;;;;;;;;;5017316;28;20454;-96
2021/08/14 04:47:55;;;;;;;21.17;19.97;;;;;;;;;;5034990;28;20431;-96
2021/08/14 04:50:22;;;;;;;21.30;19.70;;;;;;;;;;5034639;28;20465;-90
2021/08/14 04:52:50;;;;;;;20.23;18.83;;;;;;;;;;5034376;28;20430;-91
2021/08/14 04:55:18;;;;;;;21.50;19.90;;;;;;;;;;5034345;28;20419;-95
2021/08/14 04:57:46;;;;;;;22.20;20.43;;;;;;;;;;5034995;28;20791;-96
2021/08/14 05:00:14;;;;;;;22.50;20.60;;;;;;;;;;5035091;28;20848;-96
2021/08/14 05:02:41;;;;;;;22.20;20.50;;;;;;;;;;5034528;28;20775;-90
2021/08/14 05:05:09;;;;;;;21.93;20.30;;;;;;;;;;5034449;28;20898;-90
2021/08/14 05:07:37;;;;;;;22.37;20.83;;;;;;;;;;5035389;28;20451;-90
2021/08/14 05:10:04;;;;;;;22.47;21.00;;;;;;;;;;5016838;28;20450;-96
2021/08/14 05:12:33;;;;;;;21.70;20.40;;;;;;;;;;5017198;28;20924;-96
2021/08/14 05:15:01;;;;;;;23.00;21.30;;;;;;;;;;5036646;28;20414;-96
2021/08/14 05:17:28;;;;;;;21.13;19.73;;;;;;;;;;5034931;28;20408;-96
2021/08/14 05:19:55;;;;;;;23.10;21.40;;;;;;;;;;5035281;28;20451;-96
2021/08/14 05:22:23;;;;;;;20.90;19.50;;;;;;;;;;5034374;28;20430;-96
2021/08/14 05:24:51;;;;;;;22.13;20.37;;;;;;;;;;5034629;28;20483;-96
2021/08/14 05:27:18;;;;;;;21.67;20.23;;;;;;;;;;5017398;28;20419;-96
2021/08/14 05:29:47;;;;;;;21.83;20.33;;;;;;;;;;5034638;28;20488;-96
2021/08/14 05:32:15;;;;;;;21.83;20.07;;;;;;;;;;5017466;28;20546;-95
2021/08/14 05:34:42;;;;;;;23.03;20.90;;;;;;;;;;5039048;28;20419;-96
2021/08/14 05:37:09;;;;;;;22.00;19.80;;;;;;;;;;5038483;28;20454;-96
2021/08/14 05:39:37;;;;;;;22.43;20.50;;;;;;;;;;5020836;28;20440;-96
2021/08/14 05:42:04;;;;;;;22.07;20.47;;;;;;;;;;5038381;28;20414;-96
2021/08/14 05:44:32;;;;;;;22.27;20.20;;;;;;;;;;5038171;28;20459;-96
2021/08/14 05:47:01;;;;;;;21.00;19.60;;;;;;;;;;5037944;28;20447;-96
2021/08/14 05:49:28;;;;;;;21.47;20.07;;;;;;;;;;5038253;28;20422;-96
2021/08/14 05:51:57;;;;;;;21.43;19.47;;;;;;;;;;5037922;28;20482;-96
2021/08/14 05:54:25;;;;;;;20.57;19.10;;;;;;;;;;5038088;28;20958;-96
2021/08/14 05:56:52;;;;;;;22.67;20.63;;;;;;;;;;5037733;28;20477;-96
2021/08/14 05:59:19;;;;;;;21.10;19.70;;;;;;;;;;5020360;28;20460;-96
2021/08/14 06:01:47;;;;;;;21.13;19.53;;;;;;;;;;5037321;28;20437;-96
2021/08/14 06:04:16;;;;;;;21.73;20.17;;;;;;;;;;5037785;28;20450;-96
2021/08/14 06:06:44;;;;;;;21.20;19.43;;;;;;;;;;5037552;28;20446;-96
2021/08/14 06:09:12;;;;;;;21.60;20.07;;;;;;;;;;5037777;28;20412;-96
2021/08/14 06:11:39;;;;;;;20.50;19.17;;;;;;;;;;5037104;28;20491;-96
2021/08/14 06:14:07;;;;;;;21.70;20.00;;;;;;;;;;5019987;28;20442;-96
2021/08/14 06:16:34;;;;;;;21.90;20.07;;;;;;;;;;5020125;28;20419;-96
2021/08/14 06:19:02;;;;;;;21.23;19.53;;;;;;;;;;5037510;28;20773;-96
2021/08/14 06:21:31;;;;;;;21.47;19.90;;;;;;;;;;5037205;28;20445;-96
2021/08/14 06:23:58;;;;;;;21.03;19.63;;;;;;;;;;5037484;28;20754;-95
2021/08/14 06:26:26;;;;;;;22.30;20.70;;;;;;;;;;5037268;28;20437;-96
2021/08/14 06:28:53;;;;;;;21.80;19.70;;;;;;;;;;5037227;28;20436;-96
2021/08/14 06:31:20;;;;;;;22.87;21.40;;;;;;;;;;5036863;28;20484;-96
2021/08/14 06:33:48;;;;;;;21.90;20.30;;;;;;;;;;5019348;28;20485;-96
2021/08/14 06:36:15;;;;;;;21.57;20.17;;;;;;;;;;5037141;28;20448;-96
2021/08/14 06:38:45;;;;;;;22.37;20.87;;;;;;;;;;5037095;28;20437;-96
2021/08/14 06:41:12;;;;;;;21.73;20.27;;;;;;;;;;5036694;28;20413;-96
2021/08/14 06:43:39;;;;;;;22.33;20.63;;;;;;;;;;5036659;28;20424;-96
2021/08/14 06:46:07;;;;;;;23.83;21.87;;;;;;;;;;5036359;28;20403;-96
2021/08/14 06:48:35;;;;;;;24.07;21.90;;;;;;;;;;5038254;28;20416;-96
2021/08/14 06:51:03;;;;;;;23.83;22.03;;;;;;;;;;5039113;28;21038;-96
2021/08/14 06:53:31;;;;;;;24.80;23.00;;;;;;;;;;5043848;28;20419;-93
2021/08/14 06:55:59;;;;;;;23.73;22.13;;;;;;;;;;5041908;28;20443;-95
2021/08/14 06:58:27;;;;;;;25.00;22.70;;;;;;;;;;5049111;28;20426;-96
2021/08/14 07:00:55;;;;;;;25.77;23.57;;;;;;;;;;5045360;28;20431;-96
2021/08/14 07:03:23;;;;;;;23.00;21.33;;;;;;;;;;5045614;28;20418;-96
2021/08/14 07:05:50;;;;;;;25.77;23.73;;;;;;;;;;5022590;28;20918;-96
2021/08/14 07:08:17;;;;;;;24.57;22.60;;;;;;;;;;5036866;28;20769;-96
2021/08/14 07:10:45;;;;;;;25.13;22.90;;;;;;;;;;5036064;28;20467;-96
2021/08/14 07:13:14;;;;;;;24.33;22.53;;;;;;;;;;5036640;28;20433;-96
2021/08/14 07:15:41;;;;;;;25.33;23.43;;;;;;;;;;5018767;28;20460;-96
2021/08/14 07:18:09;;;;;;;25.87;23.77;;;;;;;;;;5036476;28;20441;-96
2021/08/14 07:20:36;;;;;;;25.87;23.60;;;;;;;;;;5036082;28;20542;-95
2021/08/14 07:23:03;;;;;;;26.83;24.53;;;;;;;;;;5038817;28;20427;-96
2021/08/14 07:25:31;;;;;;;27.40;24.97;;;;;;;;;;5018708;28;20426;-96
2021/08/14 07:27:58;;;;;;;26.63;24.53;;;;;;;;;;5036528;28;20448;-96
2021/08/14 07:30:27;;;;;;;26.67;24.40;;;;;;;;;;5018565;28;20474;-96
2021/08/14 07:32:55;;;;;;;27.80;25.50;;;;;;;;;;5036011;28;20414;-96
2021/08/14 07:35:22;;;;;;;28.70;26.30;;;;;;;;;;5036137;28;20415;-96
2021/08/14 07:37:50;;;;;;;27.57;25.57;;;;;;;;;;5038928;28;20437;-96
2021/08/14 07:40:18;;;;;;;28.37;26.27;;;;;;;;;;5044143;28;20446;-96
2021/08/14 07:42:45;;;;;;;29.07;26.70;;;;;;;;;;5038674;28;20449;-96
2021/08/14 07:45:15;;;;;;;28.57;26.07;;;;;;;;;;5036432;28;20439;-96
2021/08/14 07:47:47;;;;;;;27.90;25.70;;;;;;;;;;5038155;28;20472;-96
2021/08/14 07:50:17;;;;;;;27.93;25.53;;;;;;;;;;5036812;28;20412;-96
2021/08/14 07:52:46;;;;;;;28.73;26.23;;;;;;;;;;5036632;28;20427;-95
2021/08/14 07:55:13;;;;;;;28.23;25.93;;;;;;;;;;5019377;28;20758;-95
2021/08/14 07:57:41;;;;;;;28.37;25.83;;;;;;;;;;5035382;28;20462;-96
2021/08/14 08:00:09;;;;;;;29.57;26.97;;;;;;;;;;5035636;28;20419;-95
2021/08/14 08:02:37;;;;;;;28.07;25.77;;;;;;;;;;5035198;28;20412;-95
2021/08/14 08:05:07;;;;;;;27.60;25.40;;;;;;;;;;5035307;28;20418;-96
2021/08/14 08:07:34;;;;;;;27.57;25.37;;;;;;;;;;5035630;28;20444;-95
2021/08/14 08:10:05;;;;;;;28.37;26.00;;;;;;;;;;5035219;28;20825;-96
2021/08/14 08:12:32;;;;;;;27.73;25.10;;;;;;;;;;5035488;28;20489;-96
2021/08/14 08:14:59;;;;;;;27.50;25.13;;;;;;;;;;5035106;28;20449;-96
2021/08/14 08:17:27;;;;;;;27.90;25.80;;;;;;;;;;5035382;28;20435;-95
2021/08/14 08:19:54;;;;;;;26.30;24.13;;;;;;;;;;5037211;28;20428;-94
2021/08/14 08:22:23;;;;;;;28.33;25.83;;;;;;;;;;5035653;28;20456;-95
2021/08/14 08:24:50;;;;;;;27.60;25.60;;;;;;;;;;5036005;28;20906;-95
2021/08/14 08:27:18;;;;;;;26.80;24.47;;;;;;;;;;5036302;28;20427;-96
2021/08/14 08:29:45;;;;;;;26.37;24.57;;;;;;;;;;5019260;28;20478;-95
2021/08/14 08:32:13;;;;;;;26.03;23.80;;;;;;;;;;5036036;28;20496;-96
2021/08/14 08:34:40;;;;;;;27.30;24.77;;;;;;;;;;5037262;28;20911;-93
2021/08/14 08:37:07;;;;;;;27.07;24.87;;;;;;;;;;5035194;28;20450;-96
2021/08/14 08:39:37;;;;;;;26.93;24.73;;;;;;;;;;5035717;28;20442;-94
2021/08/14 08:42:05;;;;;;;27.67;25.37;;;;;;;;;;5035362;28;20445;-96
2021/08/14 08:44:32;;;;;;;28.50;25.87;;;;;;;;;;5035560;28;20443;-96
2021/08/14 08:47:01;;;;;;;27.83;25.40;;;;;;;;;;5017399;28;20454;-96
2021/08/14 08:49:29;;;;;;;24.80;22.80;;;;;;;;;;5034908;28;20790;-96
2021/08/14 08:51:57;;;;;;;26.00;23.37;;;;;;;;;;5035123;28;20489;-96
2021/08/14 08:54:24;;;;;;;24.77;22.70;;;;;;;;;;5035760;28;20805;-96
2021/08/14 08:56:53;;;;;;;24.97;23.07;;;;;;;;;;5035864;28;20486;-96
2021/08/14 08:59:20;;;;;;;25.77;23.77;;;;;;;;;;5036853;28;20466;-96
2021/08/14 09:04:33;;;;;;;25.17;23.27;;;;;;;;;;5137440;22;20558;-94
2021/08/14 09:07:01;;;;;;;24.47;22.03;;;;;;;;;;5055849;28;20434;-95
2021/08/14 09:09:29;;;;;;;24.20;22.40;;;;;;;;;;5056977;28;20811;-94
2021/08/14 09:20:16;;;;;;;23.57;21.57;;;;;;;;;;5751656;22;20459;-96
2021/08/14 09:25:22;;;;;;;24.40;22.30;;;;;;;;;;6109153;22;21375;-96
2021/08/14 09:30:41;;;;;;;25.57;23.07;;;;;;;;;;5157945;22;20471;-95
2021/08/14 09:35:47;;;;;;;25.73;23.60;;;;;;;;;;5820208;22;20559;-94
2021/08/14 09:51:36;;;;;;;24.30;22.20;;;;;;;;;;5782204;22;20555;-96
2021/08/14 09:54:05;;;;;;;25.13;23.07;;;;;;;;;;5073713;28;20440;-96
2021/08/14 09:56:34;;;;;;;24.67;22.50;;;;;;;;;;5073364;28;20450;-96
2021/08/14 09:59:10;;;;;;;23.90;22.10;;;;;;;;;;5073983;28;20417;-96
2021/08/14 10:01:52;;;;;;;24.23;22.17;;;;;;;;;;5048742;28;20514;-96
2021/08/14 10:04:19;;;;;;;25.13;22.73;;;;;;;;;;5063141;28;20432;-96
2021/08/14 10:06:49;;;;;;;24.10;22.00;;;;;;;;;;5062179;28;20454;-95
2021/08/14 10:14:52;;;;;;;23.03;21.27;;;;;;;;;;6019299;22;20496;-93
2021/08/14 10:29:10;;;;;;;23.00;21.37;;;;;;;;;;5060073;28;20441;-88
2021/08/14 10:31:45;;;;;;;22.70;21.03;;;;;;;;;;5056587;28;20477;-85
2021/08/14 10:34:30;;;;;;;23.57;21.60;;;;;;;;;;5056993;28;20496;-85
2021/08/14 10:36:57;;;;;;;24.43;22.53;;;;;;;;;;5056912;28;20482;-84
2021/08/14 10:39:25;;;;;;;23.47;21.00;;;;;;;;;;5057125;28;20457;-85
2021/08/14 10:41:57;;;;;;;22.40;20.90;;;;;;;;;;5039298;28;20465;-86
2021/08/14 10:44:47;;;;;;;22.63;20.73;;;;;;;;;;5057098;28;20442;-89
2021/08/14 10:47:33;;;;;;;22.20;20.43;;;;;;;;;;5057530;28;20500;-88
2021/08/14 10:50:00;;;;;;;22.37;20.87;;;;;;;;;;5057052;28;20434;-89
2021/08/14 10:52:33;;;;;;;22.73;20.93;;;;;;;;;;5056904;28;20485;-85
2021/08/14 10:55:05;;;;;;;22.50;20.87;;;;;;;;;;5056878;28;20449;-91
2021/08/14 10:57:42;;;;;;;22.77;20.87;;;;;;;;;;5057106;28;20421;-89
2021/08/14 11:00:18;;;;;;;23.77;22.00;;;;;;;;;;5056685;28;20438;-90
2021/08/14 11:03:05;;;;;;;24.37;22.00;;;;;;;;;;5057090;28;20449;-90
2021/08/14 11:05:33;;;;;;;23.47;21.43;;;;;;;;;;5056456;28;20760;-90
2021/08/14 11:08:01;;;;;;;23.70;22.00;;;;;;;;;;5056303;28;20446;-90
2021/08/14 11:10:36;;;;;;;23.10;21.50;;;;;;;;;;5056174;28;20486;-89
2021/08/14 11:13:04;;;;;;;23.10;21.50;;;;;;;;;;5056467;28;20460;-89
2021/08/14 11:15:40;;;;;;;23.13;21.23;;;;;;;;;;5056560;28;20444;-89
2021/08/14 11:18:07;;;;;;;22.60;20.67;;;;;;;;;;5057121;28;20432;-89
2021/08/14 11:20:38;;;;;;;21.90;20.40;;;;;;;;;;5056423;28;20421;-92
2021/08/14 11:23:23;;;;;;;22.47;20.67;;;;;;;;;;5052734;28;20451;-86
2021/08/14 11:25:50;;;;;;;23.80;21.73;;;;;;;;;;5055872;28;20883;-86
2021/08/14 11:28:21;;;;;;;23.03;21.30;;;;;;;;;;5056152;28;20438;-92
2021/08/14 11:30:51;;;;;;;24.10;22.40;;;;;;;;;;5056440;28;20858;-92
2021/08/14 11:33:23;;;;;;;23.93;22.20;;;;;;;;;;5056422;28;20485;-89
2021/08/14 11:35:50;;;;;;;24.00;22.30;;;;;;;;;;5055869;28;20920;-88
2021/08/14 11:38:18;;;;;;;22.80;21.00;;;;;;;;;;5056065;28;20449;-89
2021/08/14 11:40:46;;;;;;;23.50;21.80;;;;;;;;;;5055478;28;20446;-87
2021/08/14 11:43:14;;;;;;;24.87;22.57;;;;;;;;;;5037985;28;20461;-91
2021/08/14 11:45:43;;;;;;;23.73;22.13;;;;;;;;;;5055641;28;20446;-89
2021/08/14 11:48:13;;;;;;;24.70;22.70;;;;;;;;;;5055798;28;20431;-89
2021/08/14 11:50:42;;;;;;;23.17;21.47;;;;;;;;;;5055536;28;20524;-88
2021/08/14 11:53:10;;;;;;;22.27;20.77;;;;;;;;;;5055576;28;20485;-88
2021/08/14 11:55:38;;;;;;;23.17;21.50;;;;;;;;;;5037172;28;20493;-88
2021/08/14 11:58:06;;;;;;;23.47;21.63;;;;;;;;;;5055033;28;20945;-84
2021/08/14 12:00:34;;;;;;;22.73;21.23;;;;;;;;;;5055385;28;20443;-86
2021/08/14 12:03:06;;;;;;;23.43;21.80;;;;;;;;;;5055202;28;20485;-89
2021/08/14 12:05:35;;;;;;;22.67;20.97;;;;;;;;;;5055323;28;20510;-88
2021/08/14 12:08:03;;;;;;;23.53;21.73;;;;;;;;;;5055016;28;20928;-88
2021/08/14 12:10:30;;;;;;;23.63;21.80;;;;;;;;;;5055411;28;20466;-88
2021/08/14 12:12:58;;;;;;;23.23;21.60;;;;;;;;;;5055333;28;20487;-88
2021/08/14 12:15:35;;;;;;;24.70;22.90;;;;;;;;;;5054990;28;20442;-89
2021/08/14 12:18:03;;;;;;;24.90;22.77;;;;;;;;;;5054973;28;20439;-88
2021/08/14 12:20:31;;;;;;;23.27;21.53;;;;;;;;;;5054920;28;20936;-88
2021/08/14 12:23:13;;;;;;;23.40;21.70;;;;;;;;;;5055034;28;20434;-88
2021/08/14 12:25:49;;;;;;;23.17;21.63;;;;;;;;;;5054067;28;20424;-88
2021/08/14 12:28:17;;;;;;;23.57;21.83;;;;;;;;;;5054784;28;20409;-88
2021/08/14 12:30:45;;;;;;;23.77;22.00;;;;;;;;;;5055137;28;20439;-88
2021/08/14 12:33:23;;;;;;;22.23;20.73;;;;;;;;;;5036940;28;20858;-88
2021/08/14 12:35:55;;;;;;;24.70;22.43;;;;;;;;;;5054878;28;20442;-88
2021/08/14 12:38:23;;;;;;;23.17;21.37;;;;;;;;;;5054950;28;20468;-88
2021/08/14 12:40:52;;;;;;;23.50;21.80;;;;;;;;;;5054793;28;20438;-88
2021/08/14 12:43:20;;;;;;;23.63;21.83;;;;;;;;;;5054072;28;20439;-88
2021/08/14 12:45:47;;;;;;;23.37;21.53;;;;;;;;;;5054830;28;20809;-89
2021/08/14 12:48:16;;;;;;;24.07;22.00;;;;;;;;;;5054964;28;20445;-88
2021/08/14 12:50:44;;;;;;;23.73;21.83;;;;;;;;;;5054532;28;20454;-88
2021/08/14 12:53:12;;;;;;;22.97;21.47;;;;;;;;;;5054454;28;20483;-88
2021/08/14 12:55:40;;;;;;;24.07;22.17;;;;;;;;;;5054592;28;20475;-88
2021/08/14 12:58:10;;;;;;;23.30;21.70;;;;;;;;;;5036843;28;20443;-88
2021/08/14 13:00:38;;;;;;;22.90;21.30;;;;;;;;;;5054568;28;20446;-89
2021/08/14 13:03:07;;;;;;;23.67;22.07;;;;;;;;;;5054431;28;20435;-88
2021/08/14 13:05:35;;;;;;;24.03;22.07;;;;;;;;;;5054584;28;20445;-87
2021/08/14 13:08:03;;;;;;;23.83;21.93;;;;;;;;;;5054614;28;20442;-86
2021/08/14 13:10:30;;;;;;;23.20;21.50;;;;;;;;;;5054384;28;20405;-91
2021/08/14 13:12:59;;;;;;;23.00;21.47;;;;;;;;;;5055054;28;20482;-95
2021/08/14 13:15:29;;;;;;;23.23;21.53;;;;;;;;;;5060628;28;20457;-96
2021/08/14 13:17:56;;;;;;;23.70;22.00;;;;;;;;;;5055000;28;20461;-96
2021/08/14 13:20:25;;;;;;;23.83;21.93;;;;;;;;;;5047686;23;20499;-93
2021/08/14 13:22:53;;;;;;;23.10;21.50;;;;;;;;;;5050632;23;20432;-94
2021/08/14 13:25:21;;;;;;;23.70;22.00;;;;;;;;;;5376115;22;20474;-94
2021/08/14 13:27:49;;;;;;;22.90;21.33;;;;;;;;;;5036865;28;20439;-88
2021/08/14 13:30:19;;;;;;;24.53;22.37;;;;;;;;;;5054415;28;20793;-88
2021/08/14 13:32:48;;;;;;;23.80;22.20;;;;;;;;;;5054281;28;20517;-90
2021/08/14 13:35:16;;;;;;;22.17;20.80;;;;;;;;;;5054563;28;20425;-89
2021/08/14 13:37:43;;;;;;;24.27;22.23;;;;;;;;;;5054646;28;20448;-89
2021/08/14 13:40:12;;;;;;;23.60;21.90;;;;;;;;;;5053833;28;20447;-91
2021/08/14 13:42:40;;;;;;;23.17;21.57;;;;;;;;;;5054061;28;20409;-92
2021/08/14 13:45:09;;;;;;;24.50;22.80;;;;;;;;;;5054413;28;20439;-91
2021/08/14 13:47:37;;;;;;;23.83;21.87;;;;;;;;;;5054001;28;20916;-91
2021/08/14 13:50:06;;;;;;;23.53;21.83;;;;;;;;;;5036889;28;20438;-90
2021/08/14 13:52:33;;;;;;;23.37;21.73;;;;;;;;;;5053867;28;20482;-93
2021/08/14 13:55:01;;;;;;;24.37;22.63;;;;;;;;;;5039546;28;20450;-93
2021/08/14 13:57:29;;;;;;;22.83;21.30;;;;;;;;;;5057923;28;20442;-91
2021/08/14 13:59:56;;;;;;;23.23;21.73;;;;;;;;;;5057973;28;20485;-92
2021/08/14 14:02:23;;;;;;;23.53;22.00;;;;;;;;;;5057677;28;20458;-93
2021/08/14 14:04:51;;;;;;;24.50;22.70;;;;;;;;;;5057707;28;20451;-92
2021/08/14 14:07:21;;;;;;;23.20;21.37;;;;;;;;;;5057744;28;20417;-93
2021/08/14 14:09:48;;;;;;;23.70;22.20;;;;;;;;;;5039569;28;20551;-93
2021/08/14 14:12:16;;;;;;;23.30;21.60;;;;;;;;;;5039949;28;20453;-92
2021/08/14 14:14:43;;;;;;;24.27;22.47;;;;;;;;;;5057621;28;20436;-92
2021/08/14 14:17:10;;;;;;;23.83;22.13;;;;;;;;;;5057270;28;20463;-92
2021/08/14 14:19:38;;;;;;;23.80;22.00;;;;;;;;;;5057389;28;20435;-93
2021/08/14 14:22:08;;;;;;;23.53;21.93;;;;;;;;;;5057227;28;20920;-93
2021/08/14 14:24:37;;;;;;;23.47;21.87;;;;;;;;;;5057636;28;20450;-92
2021/08/14 14:27:05;;;;;;;23.87;22.00;;;;;;;;;;5056711;28;20497;-92
2021/08/14 14:29:32;;;;;;;24.80;22.73;;;;;;;;;;5057053;28;20427;-93
2021/08/14 14:31:59;;;;;;;24.97;22.97;;;;;;;;;;5057094;28;20443;-92
2021/08/14 14:34:27;;;;;;;25.30;23.33;;;;;;;;;;5058020;28;20489;-93
2021/08/14 14:36:54;;;;;;;26.10;24.27;;;;;;;;;;5057316;28;20434;-92
2021/08/14 14:39:21;;;;;;;26.17;24.47;;;;;;;;;;5057806;28;20458;-93
2021/08/14 14:41:51;;;;;;;23.87;22.27;;;;;;;;;;5039411;28;20577;-92
2021/08/14 14:44:18;;;;;;;25.00;23.23;;;;;;;;;;5056878;28;20849;-92
2021/08/14 14:46:45;;;;;;;23.83;22.13;;;;;;;;;;5056806;28;20431;-92
2021/08/14 14:49:13;;;;;;;24.53;22.83;;;;;;;;;;5056747;28;20465;-93
2021/08/14 14:51:40;;;;;;;25.10;23.30;;;;;;;;;;5056645;28;20463;-92
2021/08/14 14:54:08;;;;;;;23.73;22.03;;;;;;;;;;5056822;28;20522;-91
2021/08/14 14:56:35;;;;;;;23.80;22.20;;;;;;;;;;5057246;28;20434;-92
2021/08/14 14:59:04;;;;;;;23.63;22.03;;;;;;;;;;5057035;28;20742;-91
2021/08/14 15:01:31;;;;;;;26.30;24.30;;;;;;;;;;5056844;28;20439;-92
2021/08/14 15:03:59;;;;;;;23.60;21.87;;;;;;;;;;5022725;28;20573;-92
2021/08/14 15:06:27;;;;;;;24.47;22.47;;;;;;;;;;5038306;28;20963;-91
2021/08/14 15:08:54;;;;;;;36.13;32.90;;;;;;;;;;5056403;28;20431;-92
2021/08/14 15:11:22;;;;;;;40.57;37.07;;;;;;;;;;5056614;28;20456;-92
2021/08/14 15:13:49;;;;;;;26.83;24.70;;;;;;;;;;5056180;28;20484;-92